Главная страница
METAR-TAF:

METAR-TAF

Аэропорты :

Хельсинки-Вантаа

Хельсинки, Финляндия

широта: 60-19N, долгота: 024-58E, высота над уровнем моря: 51 м

Текущие метеонаблюдения

Эта сводка был подготовлена 27 минут назад, в 12:50 UTC
Ветер 10 Узел от западный
Температура 3°C
Влажность 81%
Давление 1018 hPa
Видимость 10 км и более
Рассеянная облачность на высоте 1300 фута

METAR: EFHK 191250Z 26010KT 9999 BKN013 03/00 Q1018 BECMG BKN015

Время: 15:17 (13:17 UTC)

Прогноз

Эта сводка был подготовлена 1 час и 48 минут назад, в 11:29 UTC
Прогноз действительный с 19-го 12 UTC до 20-го 12 UTC
Ветер 14 Узел от западный
Видимость 10 км и более
Рассеянная облачность на высоте 1500 фута
временами
С 19-го 12 UTC до 19-го 21 UTC
Рассеянная облачность на высоте 1200 фута

TAF: EFHK 191129Z 1912/2012 27014KT 9999 BKN015 TEMPO 1912/1921 BKN012

Метеонаблюдения и прогнозы для более 4000 аэропортов (сводки METAR и TAF).

Имеющиеся станции представлены на карте желтыми и красными точками.

Чтобы увидеть название станции, наведите на нее мышь.

Затем щелкните, чтобы увидеть метеонаблюдения и метеопрогнозы.

Управление картой: чтобы увеличить масштаб, щелкните зеленые кнопки с черным крестиком; чтобы уменьшить масштаб, щелкните зеленую кнопку с тире; для просмотра соседних карт щелкайте зеленые стрелки.


METAR-TAF: